sensor_id;sensor_type;location;lat;lon;timestamp;P1;durP1;ratioP1;P2;durP2;ratioP2
59788;SDS011;47353;51.614;5.530;2024-03-23T00:53:27;14.70;;;5.57;;
59788;SDS011;47353;51.614;5.530;2024-03-23T00:55:53;18.75;;;6.75;;
59788;SDS011;47353;51.614;5.530;2024-03-23T00:58:18;17.60;;;7.57;;
59788;SDS011;47353;51.614;5.530;2024-03-23T01:00:44;19.77;;;7.20;;
59788;SDS011;47353;51.614;5.530;2024-03-23T01:03:09;19.73;;;8.50;;
59788;SDS011;47353;51.614;5.530;2024-03-23T01:05:34;15.05;;;5.85;;
59788;SDS011;47353;51.614;5.530;2024-03-23T01:08:00;17.73;;;6.03;;
59788;SDS011;47353;51.614;5.530;2024-03-23T01:10:25;13.02;;;4.55;;
59788;SDS011;47353;51.614;5.530;2024-03-23T01:12:50;11.68;;;4.07;;
59788;SDS011;47353;51.614;5.530;2024-03-23T01:15:16;14.80;;;5.45;;
59788;SDS011;47353;51.614;5.530;2024-03-23T01:17:41;15.82;;;6.07;;
59788;SDS011;47353;51.614;5.530;2024-03-23T01:20:07;11.48;;;5.22;;
59788;SDS011;47353;51.614;5.530;2024-03-23T01:22:32;14.38;;;6.68;;
59788;SDS011;47353;51.614;5.530;2024-03-23T01:24:58;17.05;;;5.60;;
59788;SDS011;47353;51.614;5.530;2024-03-23T01:27:23;10.98;;;4.60;;
59788;SDS011;47353;51.614;5.530;2024-03-23T01:29:49;12.00;;;4.78;;
59788;SDS011;47353;51.614;5.530;2024-03-23T01:32:14;16.33;;;5.45;;
59788;SDS011;47353;51.614;5.530;2024-03-23T01:34:39;12.00;;;4.82;;
59788;SDS011;47353;51.614;5.530;2024-03-23T01:37:05;10.23;;;4.20;;
59788;SDS011;47353;51.614;5.530;2024-03-23T01:39:30;11.30;;;4.40;;
59788;SDS011;47353;51.614;5.530;2024-03-23T01:41:56;16.38;;;4.43;;
59788;SDS011;47353;51.614;5.530;2024-03-23T01:44:21;12.07;;;4.95;;
59788;SDS011;47353;51.614;5.530;2024-03-23T01:46:47;14.20;;;4.82;;
59788;SDS011;47353;51.614;5.530;2024-03-23T01:49:13;10.88;;;4.60;;
59788;SDS011;47353;51.614;5.530;2024-03-23T01:51:38;12.05;;;4.57;;
59788;SDS011;47353;51.614;5.530;2024-03-23T01:54:04;14.63;;;5.20;;
59788;SDS011;47353;51.614;5.530;2024-03-23T01:56:32;15.18;;;5.00;;
59788;SDS011;47353;51.614;5.530;2024-03-23T01:59:05;11.65;;;5.22;;
59788;SDS011;47353;51.614;5.530;2024-03-23T02:01:31;14.20;;;5.30;;
59788;SDS011;47353;51.614;5.530;2024-03-23T02:03:57;14.43;;;5.50;;
59788;SDS011;47353;51.614;5.530;2024-03-23T02:06:23;18.63;;;6.10;;
59788;SDS011;47353;51.614;5.530;2024-03-23T02:08:49;15.57;;;5.00;;
59788;SDS011;47353;51.614;5.530;2024-03-23T02:11:15;14.43;;;5.65;;
59788;SDS011;47353;51.614;5.530;2024-03-23T02:13:40;11.00;;;5.18;;
59788;SDS011;47353;51.614;5.530;2024-03-23T02:16:06;20.20;;;8.18;;
59788;SDS011;47353;51.614;5.530;2024-03-23T02:18:32;20.02;;;8.50;;
59788;SDS011;47353;51.614;5.530;2024-03-23T02:20:58;17.77;;;7.80;;
59788;SDS011;47353;51.614;5.530;2024-03-23T02:23:23;17.27;;;7.65;;
59788;SDS011;47353;51.614;5.530;2024-03-23T02:25:49;16.33;;;5.68;;
59788;SDS011;47353;51.614;5.530;2024-03-23T02:28:15;15.63;;;6.38;;
59788;SDS011;47353;51.614;5.530;2024-03-23T02:30:42;14.90;;;5.60;;
59788;SDS011;47353;51.614;5.530;2024-03-23T02:33:07;16.02;;;6.43;;
59788;SDS011;47353;51.614;5.530;2024-03-23T02:35:33;16.83;;;6.53;;
59788;SDS011;47353;51.614;5.530;2024-03-23T02:37:58;18.20;;;6.85;;
59788;SDS011;47353;51.614;5.530;2024-03-23T02:40:24;18.27;;;7.18;;
59788;SDS011;47353;51.614;5.530;2024-03-23T02:42:50;16.58;;;6.85;;
59788;SDS011;47353;51.614;5.530;2024-03-23T02:45:15;17.05;;;6.85;;
59788;SDS011;47353;51.614;5.530;2024-03-23T02:47:41;15.73;;;7.03;;
59788;SDS011;47353;51.614;5.530;2024-03-23T02:50:06;14.90;;;6.93;;
59788;SDS011;47353;51.614;5.530;2024-03-23T02:52:32;14.75;;;6.63;;
59788;SDS011;47353;51.614;5.530;2024-03-23T02:54:58;13.40;;;5.68;;
59788;SDS011;47353;51.614;5.530;2024-03-23T02:57:23;13.73;;;6.03;;
59788;SDS011;47353;51.614;5.530;2024-03-23T02:59:49;13.93;;;5.53;;
59788;SDS011;47353;51.614;5.530;2024-03-23T03:02:15;14.45;;;5.20;;
59788;SDS011;47353;51.614;5.530;2024-03-23T03:04:41;14.68;;;5.20;;
59788;SDS011;47353;51.614;5.530;2024-03-23T03:07:06;12.35;;;5.28;;
59788;SDS011;47353;51.614;5.530;2024-03-23T03:09:31;13.55;;;4.90;;
59788;SDS011;47353;51.614;5.530;2024-03-23T03:11:58;10.52;;;4.57;;
59788;SDS011;47353;51.614;5.530;2024-03-23T03:14:23;12.63;;;5.35;;
59788;SDS011;47353;51.614;5.530;2024-03-23T03:16:48;13.40;;;4.75;;
59788;SDS011;47353;51.614;5.530;2024-03-23T03:19:14;16.52;;;5.18;;
59788;SDS011;47353;51.614;5.530;2024-03-23T03:21:41;16.38;;;5.13;;
59788;SDS011;47353;51.614;5.530;2024-03-23T03:24:07;15.38;;;5.57;;
59788;SDS011;47353;51.614;5.530;2024-03-23T03:26:32;12.27;;;5.10;;
59788;SDS011;47353;51.614;5.530;2024-03-23T03:28:58;13.73;;;4.80;;
59788;SDS011;47353;51.614;5.530;2024-03-23T03:31:23;14.50;;;4.97;;
59788;SDS011;47353;51.614;5.530;2024-03-23T03:33:49;15.27;;;4.82;;
59788;SDS011;47353;51.614;5.530;2024-03-23T03:36:16;16.30;;;5.10;;
59788;SDS011;47353;51.614;5.530;2024-03-23T03:38:41;14.85;;;6.60;;
59788;SDS011;47353;51.614;5.530;2024-03-23T03:41:07;22.38;;;7.40;;
59788;SDS011;47353;51.614;5.530;2024-03-23T03:43:32;18.20;;;6.28;;
59788;SDS011;47353;51.614;5.530;2024-03-23T03:45:58;16.42;;;5.20;;
59788;SDS011;47353;51.614;5.530;2024-03-23T03:48:25;16.02;;;5.38;;
59788;SDS011;47353;51.614;5.530;2024-03-23T03:50:51;16.70;;;5.40;;
59788;SDS011;47353;51.614;5.530;2024-03-23T03:53:17;19.80;;;6.40;;
59788;SDS011;47353;51.614;5.530;2024-03-23T03:55:43;18.58;;;6.25;;
59788;SDS011;47353;51.614;5.530;2024-03-23T03:58:08;18.23;;;6.70;;
59788;SDS011;47353;51.614;5.530;2024-03-23T04:00:34;17.80;;;6.13;;
59788;SDS011;47353;51.614;5.530;2024-03-23T04:03:00;22.17;;;6.68;;
59788;SDS011;47353;51.614;5.530;2024-03-23T04:05:26;14.27;;;5.43;;
59788;SDS011;47353;51.614;5.530;2024-03-23T04:07:51;17.15;;;6.07;;
59788;SDS011;47353;51.614;5.530;2024-03-23T04:10:16;19.95;;;6.63;;
59788;SDS011;47353;51.614;5.530;2024-03-23T04:12:43;17.50;;;5.78;;
59788;SDS011;47353;51.614;5.530;2024-03-23T04:15:09;14.32;;;5.13;;
59788;SDS011;47353;51.614;5.530;2024-03-23T04:17:35;16.67;;;5.45;;
59788;SDS011;47353;51.614;5.530;2024-03-23T04:20:01;17.00;;;4.82;;
59788;SDS011;47353;51.614;5.530;2024-03-23T04:22:28;11.85;;;4.63;;
59788;SDS011;47353;51.614;5.530;2024-03-23T04:24:54;10.10;;;4.30;;
59788;SDS011;47353;51.614;5.530;2024-03-23T04:27:20;16.13;;;4.95;;
59788;SDS011;47353;51.614;5.530;2024-03-23T04:29:46;13.73;;;4.55;;
59788;SDS011;47353;51.614;5.530;2024-03-23T04:32:13;11.13;;;4.20;;
59788;SDS011;47353;51.614;5.530;2024-03-23T04:34:39;10.18;;;4.28;;
59788;SDS011;47353;51.614;5.530;2024-03-23T04:37:04;13.90;;;5.05;;
59788;SDS011;47353;51.614;5.530;2024-03-23T04:39:29;18.00;;;6.75;;
59788;SDS011;47353;51.614;5.530;2024-03-23T04:41:55;15.30;;;5.38;;
59788;SDS011;47353;51.614;5.530;2024-03-23T04:44:20;13.18;;;4.75;;
59788;SDS011;47353;51.614;5.530;2024-03-23T04:46:46;16.55;;;5.28;;
59788;SDS011;47353;51.614;5.530;2024-03-23T04:49:11;15.55;;;6.13;;
59788;SDS011;47353;51.614;5.530;2024-03-23T04:51:37;15.07;;;5.78;;
59788;SDS011;47353;51.614;5.530;2024-03-23T04:54:10;17.25;;;5.18;;
59788;SDS011;47353;51.614;5.530;2024-03-23T04:56:36;15.65;;;5.32;;
59788;SDS011;47353;51.614;5.530;2024-03-23T04:59:02;12.95;;;5.50;;
59788;SDS011;47353;51.614;5.530;2024-03-23T05:01:29;12.18;;;4.35;;
59788;SDS011;47353;51.614;5.530;2024-03-23T05:03:56;12.57;;;4.18;;
59788;SDS011;47353;51.614;5.530;2024-03-23T05:06:22;12.35;;;4.63;;
59788;SDS011;47353;51.614;5.530;2024-03-23T05:08:47;13.90;;;5.03;;
59788;SDS011;47353;51.614;5.530;2024-03-23T05:11:13;12.43;;;4.40;;
59788;SDS011;47353;51.614;5.530;2024-03-23T05:13:38;12.07;;;4.68;;
59788;SDS011;47353;51.614;5.530;2024-03-23T05:16:04;13.27;;;4.47;;
59788;SDS011;47353;51.614;5.530;2024-03-23T05:18:29;12.80;;;4.78;;
59788;SDS011;47353;51.614;5.530;2024-03-23T05:20:58;16.50;;;5.57;;
59788;SDS011;47353;51.614;5.530;2024-03-23T05:23:27;15.88;;;5.68;;
59788;SDS011;47353;51.614;5.530;2024-03-23T05:25:53;12.15;;;5.20;;
59788;SDS011;47353;51.614;5.530;2024-03-23T05:28:19;10.90;;;5.03;;
59788;SDS011;47353;51.614;5.530;2024-03-23T05:30:54;14.57;;;5.50;;
59788;SDS011;47353;51.614;5.530;2024-03-23T05:33:20;14.23;;;5.97;;
59788;SDS011;47353;51.614;5.530;2024-03-23T05:35:46;15.45;;;5.43;;
59788;SDS011;47353;51.614;5.530;2024-03-23T05:38:12;19.73;;;6.90;;
59788;SDS011;47353;51.614;5.530;2024-03-23T05:40:38;20.15;;;6.70;;
59788;SDS011;47353;51.614;5.530;2024-03-23T05:43:05;14.73;;;6.07;;
59788;SDS011;47353;51.614;5.530;2024-03-23T05:45:31;12.82;;;6.40;;
59788;SDS011;47353;51.614;5.530;2024-03-23T05:47:56;16.40;;;6.65;;
59788;SDS011;47353;51.614;5.530;2024-03-23T05:50:22;21.65;;;7.55;;
59788;SDS011;47353;51.614;5.530;2024-03-23T05:52:48;21.27;;;7.75;;
59788;SDS011;47353;51.614;5.530;2024-03-23T05:55:14;14.65;;;6.97;;
59788;SDS011;47353;51.614;5.530;2024-03-23T05:57:39;20.27;;;7.93;;
59788;SDS011;47353;51.614;5.530;2024-03-23T06:00:05;22.15;;;7.82;;
59788;SDS011;47353;51.614;5.530;2024-03-23T06:02:35;19.23;;;7.65;;
59788;SDS011;47353;51.614;5.530;2024-03-23T06:05:00;22.23;;;7.55;;
59788;SDS011;47353;51.614;5.530;2024-03-23T06:07:27;14.98;;;7.20;;
59788;SDS011;47353;51.614;5.530;2024-03-23T06:09:52;18.55;;;7.15;;
59788;SDS011;47353;51.614;5.530;2024-03-23T06:12:18;20.05;;;7.53;;
59788;SDS011;47353;51.614;5.530;2024-03-23T06:14:43;20.38;;;7.68;;
59788;SDS011;47353;51.614;5.530;2024-03-23T06:17:09;16.38;;;7.45;;
59788;SDS011;47353;51.614;5.530;2024-03-23T06:19:34;16.60;;;7.57;;
59788;SDS011;47353;51.614;5.530;2024-03-23T06:21:59;14.85;;;6.90;;
59788;SDS011;47353;51.614;5.530;2024-03-23T06:24:25;19.15;;;8.13;;
59788;SDS011;47353;51.614;5.530;2024-03-23T06:26:50;15.18;;;6.55;;
59788;SDS011;47353;51.614;5.530;2024-03-23T06:29:16;16.58;;;6.53;;
59788;SDS011;47353;51.614;5.530;2024-03-23T06:31:41;16.55;;;7.20;;
59788;SDS011;47353;51.614;5.530;2024-03-23T06:34:07;19.40;;;6.63;;
59788;SDS011;47353;51.614;5.530;2024-03-23T06:36:32;18.73;;;6.80;;
59788;SDS011;47353;51.614;5.530;2024-03-23T06:38:57;15.88;;;6.60;;
59788;SDS011;47353;51.614;5.530;2024-03-23T06:41:23;17.10;;;6.43;;
59788;SDS011;47353;51.614;5.530;2024-03-23T06:43:49;19.95;;;6.40;;
59788;SDS011;47353;51.614;5.530;2024-03-23T06:46:14;17.13;;;6.13;;
59788;SDS011;47353;51.614;5.530;2024-03-23T06:48:40;17.30;;;6.22;;
59788;SDS011;47353;51.614;5.530;2024-03-23T06:51:05;17.85;;;6.15;;
59788;SDS011;47353;51.614;5.530;2024-03-23T06:53:31;15.88;;;5.75;;
59788;SDS011;47353;51.614;5.530;2024-03-23T06:55:57;15.18;;;5.50;;
59788;SDS011;47353;51.614;5.530;2024-03-23T06:58:23;15.73;;;5.13;;
59788;SDS011;47353;51.614;5.530;2024-03-23T07:00:49;13.93;;;4.90;;
59788;SDS011;47353;51.614;5.530;2024-03-23T07:03:16;12.90;;;5.07;;
59788;SDS011;47353;51.614;5.530;2024-03-23T07:05:42;16.95;;;5.90;;
59788;SDS011;47353;51.614;5.530;2024-03-23T07:08:07;15.85;;;5.05;;
59788;SDS011;47353;51.614;5.530;2024-03-23T07:10:33;14.18;;;4.85;;
59788;SDS011;47353;51.614;5.530;2024-03-23T07:12:58;17.00;;;4.22;;
59788;SDS011;47353;51.614;5.530;2024-03-23T07:15:24;12.23;;;4.50;;
59788;SDS011;47353;51.614;5.530;2024-03-23T07:17:49;11.10;;;4.38;;
59788;SDS011;47353;51.614;5.530;2024-03-23T07:20:15;7.68;;;3.67;;
59788;SDS011;47353;51.614;5.530;2024-03-23T07:22:41;12.57;;;3.92;;
59788;SDS011;47353;51.614;5.530;2024-03-23T07:25:06;10.55;;;3.30;;
59788;SDS011;47353;51.614;5.530;2024-03-23T07:27:32;14.85;;;3.47;;
59788;SDS011;47353;51.614;5.530;2024-03-23T07:29:58;9.73;;;3.53;;
59788;SDS011;47353;51.614;5.530;2024-03-23T07:32:26;10.18;;;3.38;;
59788;SDS011;47353;51.614;5.530;2024-03-23T07:34:51;14.65;;;5.22;;
59788;SDS011;47353;51.614;5.530;2024-03-23T07:37:18;13.52;;;5.40;;
59788;SDS011;47353;51.614;5.530;2024-03-23T07:39:43;17.38;;;4.63;;
59788;SDS011;47353;51.614;5.530;2024-03-23T07:42:08;7.68;;;2.88;;
59788;SDS011;47353;51.614;5.530;2024-03-23T07:44:34;10.20;;;3.03;;
59788;SDS011;47353;51.614;5.530;2024-03-23T07:47:00;11.50;;;3.60;;
59788;SDS011;47353;51.614;5.530;2024-03-23T07:49:26;10.35;;;3.42;;
59788;SDS011;47353;51.614;5.530;2024-03-23T07:51:51;10.43;;;3.20;;
59788;SDS011;47353;51.614;5.530;2024-03-23T07:54:17;12.10;;;3.40;;
59788;SDS011;47353;51.614;5.530;2024-03-23T07:56:42;19.85;;;3.80;;
59788;SDS011;47353;51.614;5.530;2024-03-23T07:59:08;12.45;;;3.83;;
59788;SDS011;47353;51.614;5.530;2024-03-23T08:01:33;11.15;;;3.80;;
59788;SDS011;47353;51.614;5.530;2024-03-23T08:03:59;14.63;;;4.22;;
59788;SDS011;47353;51.614;5.530;2024-03-23T08:06:24;12.35;;;3.90;;
59788;SDS011;47353;51.614;5.530;2024-03-23T08:08:54;12.98;;;3.55;;
59788;SDS011;47353;51.614;5.530;2024-03-23T08:11:27;12.40;;;3.83;;
59788;SDS011;47353;51.614;5.530;2024-03-23T08:13:54;15.73;;;3.90;;
59788;SDS011;47353;51.614;5.530;2024-03-23T08:16:19;9.60;;;3.67;;
59788;SDS011;47353;51.614;5.530;2024-03-23T08:18:45;11.50;;;4.00;;
59788;SDS011;47353;51.614;5.530;2024-03-23T08:21:10;8.93;;;3.10;;
59788;SDS011;47353;51.614;5.530;2024-03-23T08:23:36;9.48;;;3.05;;
59788;SDS011;47353;51.614;5.530;2024-03-23T08:26:06;14.27;;;4.43;;
59788;SDS011;47353;51.614;5.530;2024-03-23T08:28:33;13.15;;;4.55;;
59788;SDS011;47353;51.614;5.530;2024-03-23T08:31:03;10.73;;;3.33;;
59788;SDS011;47353;51.614;5.530;2024-03-23T08:33:30;10.40;;;3.00;;
59788;SDS011;47353;51.614;5.530;2024-03-23T08:35:59;13.15;;;4.53;;
59788;SDS011;47353;51.614;5.530;2024-03-23T08:38:29;12.45;;;3.08;;
59788;SDS011;47353;51.614;5.530;2024-03-23T08:41:01;11.38;;;2.55;;
59788;SDS011;47353;51.614;5.530;2024-03-23T08:43:28;9.00;;;2.60;;
59788;SDS011;47353;51.614;5.530;2024-03-23T08:46:03;5.25;;;1.55;;
59788;SDS011;47353;51.614;5.530;2024-03-23T08:48:29;6.25;;;1.63;;
59788;SDS011;47353;51.614;5.530;2024-03-23T08:51:07;4.13;;;1.50;;
59788;SDS011;47353;51.614;5.530;2024-03-23T08:53:34;7.22;;;2.20;;
59788;SDS011;47353;51.614;5.530;2024-03-23T08:56:00;6.70;;;1.80;;
59788;SDS011;47353;51.614;5.530;2024-03-23T08:58:28;7.20;;;2.13;;
59788;SDS011;47353;51.614;5.530;2024-03-23T09:00:54;6.40;;;1.70;;
59788;SDS011;47353;51.614;5.530;2024-03-23T09:03:24;6.40;;;1.98;;
59788;SDS011;47353;51.614;5.530;2024-03-23T09:05:50;4.75;;;1.65;;
59788;SDS011;47353;51.614;5.530;2024-03-23T09:08:16;4.38;;;1.73;;
59788;SDS011;47353;51.614;5.530;2024-03-23T09:10:42;7.07;;;2.53;;
59788;SDS011;47353;51.614;5.530;2024-03-23T09:13:09;7.32;;;2.10;;
59788;SDS011;47353;51.614;5.530;2024-03-23T09:15:35;12.18;;;3.22;;
59788;SDS011;47353;51.614;5.530;2024-03-23T09:18:10;14.93;;;4.53;;
59788;SDS011;47353;51.614;5.530;2024-03-23T09:20:35;9.90;;;2.17;;
59788;SDS011;47353;51.614;5.530;2024-03-23T09:23:01;8.48;;;2.20;;
59788;SDS011;47353;51.614;5.530;2024-03-23T09:25:26;10.48;;;3.15;;
59788;SDS011;47353;51.614;5.530;2024-03-23T09:27:51;8.65;;;2.40;;
59788;SDS011;47353;51.614;5.530;2024-03-23T09:30:17;8.48;;;1.80;;
59788;SDS011;47353;51.614;5.530;2024-03-23T09:32:45;6.20;;;2.00;;
59788;SDS011;47353;51.614;5.530;2024-03-23T09:35:11;10.90;;;2.05;;
59788;SDS011;47353;51.614;5.530;2024-03-23T09:37:40;9.25;;;2.42;;
59788;SDS011;47353;51.614;5.530;2024-03-23T09:40:09;10.10;;;2.10;;
59788;SDS011;47353;51.614;5.530;2024-03-23T09:42:35;10.68;;;3.08;;
59788;SDS011;47353;51.614;5.530;2024-03-23T09:45:00;6.85;;;2.35;;
59788;SDS011;47353;51.614;5.530;2024-03-23T09:47:26;7.65;;;2.00;;
59788;SDS011;47353;51.614;5.530;2024-03-23T09:49:52;6.93;;;2.10;;
59788;SDS011;47353;51.614;5.530;2024-03-23T09:52:18;9.30;;;2.20;;
59788;SDS011;47353;51.614;5.530;2024-03-23T09:54:44;6.95;;;2.80;;
59788;SDS011;47353;51.614;5.530;2024-03-23T09:57:10;8.77;;;3.08;;
59788;SDS011;47353;51.614;5.530;2024-03-23T09:59:35;5.72;;;2.00;;
59788;SDS011;47353;51.614;5.530;2024-03-23T10:02:01;9.25;;;2.60;;
59788;SDS011;47353;51.614;5.530;2024-03-23T10:04:36;6.45;;;1.90;;
59788;SDS011;47353;51.614;5.530;2024-03-23T10:07:17;6.75;;;2.08;;
59788;SDS011;47353;51.614;5.530;2024-03-23T10:09:44;10.70;;;2.95;;
59788;SDS011;47353;51.614;5.530;2024-03-23T10:12:13;7.10;;;2.20;;
59788;SDS011;47353;51.614;5.530;2024-03-23T10:14:40;6.15;;;1.95;;
59788;SDS011;47353;51.614;5.530;2024-03-23T10:17:21;6.18;;;2.08;;
59788;SDS011;47353;51.614;5.530;2024-03-23T10:19:53;10.30;;;2.10;;
59788;SDS011;47353;51.614;5.530;2024-03-23T10:22:23;7.25;;;2.00;;
59788;SDS011;47353;51.614;5.530;2024-03-23T10:24:49;3.88;;;1.35;;
59788;SDS011;47353;51.614;5.530;2024-03-23T10:27:15;6.18;;;1.83;;
59788;SDS011;47353;51.614;5.530;2024-03-23T10:29:48;5.10;;;1.88;;
59788;SDS011;47353;51.614;5.530;2024-03-23T10:32:15;5.47;;;2.22;;
59788;SDS011;47353;51.614;5.530;2024-03-23T10:34:42;7.78;;;1.85;;
59788;SDS011;47353;51.614;5.530;2024-03-23T10:37:08;7.35;;;1.90;;
59788;SDS011;47353;51.614;5.530;2024-03-23T10:39:35;9.50;;;3.40;;
59788;SDS011;47353;51.614;5.530;2024-03-23T10:42:08;7.20;;;2.30;;
59788;SDS011;47353;51.614;5.530;2024-03-23T10:44:35;5.85;;;2.25;;
59788;SDS011;47353;51.614;5.530;2024-03-23T10:47:01;8.63;;;2.38;;
59788;SDS011;47353;51.614;5.530;2024-03-23T10:49:31;6.10;;;1.75;;
59788;SDS011;47353;51.614;5.530;2024-03-23T10:51:58;10.65;;;2.90;;
59788;SDS011;47353;51.614;5.530;2024-03-23T10:54:25;3.95;;;1.60;;
59788;SDS011;47353;51.614;5.530;2024-03-23T10:57:05;6.40;;;1.88;;
59788;SDS011;47353;51.614;5.530;2024-03-23T10:59:34;8.98;;;2.90;;
59788;SDS011;47353;51.614;5.530;2024-03-23T11:02:02;7.03;;;2.40;;
59788;SDS011;47353;51.614;5.530;2024-03-23T11:04:38;5.68;;;2.38;;
59788;SDS011;47353;51.614;5.530;2024-03-23T11:09:51;7.57;;;2.20;;
59788;SDS011;47353;51.614;5.530;2024-03-23T11:14:56;10.75;;;2.85;;
59788;SDS011;47353;51.614;5.530;2024-03-23T11:17:25;7.47;;;1.90;;
59788;SDS011;47353;51.614;5.530;2024-03-23T11:20:02;8.30;;;2.00;;
59788;SDS011;47353;51.614;5.530;2024-03-23T11:25:03;8.93;;;1.55;;
59788;SDS011;47353;51.614;5.530;2024-03-23T11:27:37;3.53;;;1.10;;
59788;SDS011;47353;51.614;5.530;2024-03-23T11:30:12;4.63;;;1.20;;
59788;SDS011;47353;51.614;5.530;2024-03-23T11:32:38;3.63;;;1.17;;
59788;SDS011;47353;51.614;5.530;2024-03-23T11:35:04;4.72;;;1.63;;
59788;SDS011;47353;51.614;5.530;2024-03-23T11:37:30;3.45;;;1.75;;
59788;SDS011;47353;51.614;5.530;2024-03-23T11:39:56;10.80;;;3.80;;
59788;SDS011;47353;51.614;5.530;2024-03-23T11:42:21;4.38;;;2.05;;
59788;SDS011;47353;51.614;5.530;2024-03-23T11:44:47;3.53;;;1.42;;
59788;SDS011;47353;51.614;5.530;2024-03-23T11:47:12;6.28;;;1.70;;
59788;SDS011;47353;51.614;5.530;2024-03-23T11:49:38;5.63;;;1.73;;
59788;SDS011;47353;51.614;5.530;2024-03-23T11:52:06;7.03;;;2.45;;
59788;SDS011;47353;51.614;5.530;2024-03-23T11:54:32;4.50;;;2.28;;
59788;SDS011;47353;51.614;5.530;2024-03-23T11:56:58;5.00;;;2.10;;
59788;SDS011;47353;51.614;5.530;2024-03-23T11:59:35;6.07;;;2.25;;
59788;SDS011;47353;51.614;5.530;2024-03-23T12:02:21;4.68;;;0.90;;
59788;SDS011;47353;51.614;5.530;2024-03-23T12:04:46;5.47;;;2.08;;
59788;SDS011;47353;51.614;5.530;2024-03-23T12:07:15;5.57;;;1.50;;
59788;SDS011;47353;51.614;5.530;2024-03-23T12:09:45;3.97;;;1.20;;
59788;SDS011;47353;51.614;5.530;2024-03-23T12:14:36;4.95;;;1.20;;
59788;SDS011;47353;51.614;5.530;2024-03-23T12:17:12;5.00;;;1.45;;
59788;SDS011;47353;51.614;5.530;2024-03-23T12:19:39;4.78;;;1.70;;
59788;SDS011;47353;51.614;5.530;2024-03-23T12:22:06;5.82;;;2.05;;
59788;SDS011;47353;51.614;5.530;2024-03-23T12:24:33;6.53;;;2.08;;
59788;SDS011;47353;51.614;5.530;2024-03-23T12:27:02;5.95;;;2.50;;
59788;SDS011;47353;51.614;5.530;2024-03-23T12:29:30;5.90;;;1.70;;
59788;SDS011;47353;51.614;5.530;2024-03-23T12:31:58;5.45;;;1.30;;
59788;SDS011;47353;51.614;5.530;2024-03-23T12:34:25;5.05;;;1.65;;
59788;SDS011;47353;51.614;5.530;2024-03-23T12:36:51;4.40;;;1.35;;
59788;SDS011;47353;51.614;5.530;2024-03-23T12:39:16;6.47;;;1.75;;
59788;SDS011;47353;51.614;5.530;2024-03-23T12:41:43;7.57;;;1.92;;
59788;SDS011;47353;51.614;5.530;2024-03-23T12:44:08;7.53;;;2.10;;
59788;SDS011;47353;51.614;5.530;2024-03-23T12:46:36;4.70;;;1.60;;
59788;SDS011;47353;51.614;5.530;2024-03-23T12:49:02;6.35;;;2.25;;
59788;SDS011;47353;51.614;5.530;2024-03-23T12:51:28;7.85;;;1.75;;
59788;SDS011;47353;51.614;5.530;2024-03-23T12:53:53;7.25;;;2.22;;
59788;SDS011;47353;51.614;5.530;2024-03-23T12:56:19;11.15;;;2.90;;
59788;SDS011;47353;51.614;5.530;2024-03-23T12:58:44;10.82;;;2.85;;
59788;SDS011;47353;51.614;5.530;2024-03-23T13:01:10;6.00;;;1.60;;
59788;SDS011;47353;51.614;5.530;2024-03-23T13:03:35;5.18;;;1.45;;
59788;SDS011;47353;51.614;5.530;2024-03-23T13:06:00;6.78;;;2.42;;
59788;SDS011;47353;51.614;5.530;2024-03-23T13:08:26;5.55;;;2.10;;
59788;SDS011;47353;51.614;5.530;2024-03-23T13:10:52;6.82;;;2.63;;
59788;SDS011;47353;51.614;5.530;2024-03-23T13:13:17;6.35;;;1.70;;
59788;SDS011;47353;51.614;5.530;2024-03-23T13:15:49;4.72;;;1.70;;
59788;SDS011;47353;51.614;5.530;2024-03-23T13:18:15;10.05;;;3.00;;
59788;SDS011;47353;51.614;5.530;2024-03-23T13:20:40;7.13;;;2.13;;
59788;SDS011;47353;51.614;5.530;2024-03-23T13:23:06;7.55;;;2.30;;
59788;SDS011;47353;51.614;5.530;2024-03-23T13:25:31;10.90;;;3.28;;
59788;SDS011;47353;51.614;5.530;2024-03-23T13:27:56;13.10;;;3.58;;
59788;SDS011;47353;51.614;5.530;2024-03-23T13:30:22;7.65;;;2.15;;
59788;SDS011;47353;51.614;5.530;2024-03-23T13:32:47;7.90;;;2.95;;
59788;SDS011;47353;51.614;5.530;2024-03-23T13:35:12;8.40;;;1.58;;
59788;SDS011;47353;51.614;5.530;2024-03-23T13:37:38;6.25;;;2.35;;
59788;SDS011;47353;51.614;5.530;2024-03-23T13:40:03;8.48;;;1.65;;
59788;SDS011;47353;51.614;5.530;2024-03-23T13:42:30;7.68;;;2.30;;
59788;SDS011;47353;51.614;5.530;2024-03-23T13:44:56;8.15;;;2.53;;
59788;SDS011;47353;51.614;5.530;2024-03-23T13:47:21;9.32;;;2.47;;
59788;SDS011;47353;51.614;5.530;2024-03-23T13:49:47;8.27;;;2.20;;
59788;SDS011;47353;51.614;5.530;2024-03-23T13:52:14;10.60;;;2.85;;
59788;SDS011;47353;51.614;5.530;2024-03-23T13:54:39;11.50;;;3.92;;
59788;SDS011;47353;51.614;5.530;2024-03-23T13:57:10;12.45;;;4.50;;
59788;SDS011;47353;51.614;5.530;2024-03-23T13:59:35;12.63;;;4.25;;
59788;SDS011;47353;51.614;5.530;2024-03-23T14:02:01;8.50;;;2.40;;
59788;SDS011;47353;51.614;5.530;2024-03-23T14:04:26;7.47;;;2.35;;
59788;SDS011;47353;51.614;5.530;2024-03-23T14:06:52;15.30;;;5.07;;
59788;SDS011;47353;51.614;5.530;2024-03-23T14:09:17;5.90;;;2.08;;
59788;SDS011;47353;51.614;5.530;2024-03-23T14:11:48;7.53;;;2.00;;
59788;SDS011;47353;51.614;5.530;2024-03-23T14:14:14;10.93;;;3.17;;
59788;SDS011;47353;51.614;5.530;2024-03-23T14:16:43;10.30;;;3.10;;
59788;SDS011;47353;51.614;5.530;2024-03-23T14:19:08;9.73;;;2.90;;
59788;SDS011;47353;51.614;5.530;2024-03-23T14:21:34;9.82;;;2.88;;
59788;SDS011;47353;51.614;5.530;2024-03-23T14:24:00;7.75;;;2.17;;
59788;SDS011;47353;51.614;5.530;2024-03-23T14:26:26;10.77;;;2.30;;
59788;SDS011;47353;51.614;5.530;2024-03-23T14:28:52;7.63;;;2.15;;
59788;SDS011;47353;51.614;5.530;2024-03-23T14:31:17;7.07;;;2.20;;
59788;SDS011;47353;51.614;5.530;2024-03-23T14:33:43;5.28;;;1.83;;
59788;SDS011;47353;51.614;5.530;2024-03-23T14:36:14;9.90;;;2.40;;
59788;SDS011;47353;51.614;5.530;2024-03-23T14:38:41;9.60;;;2.17;;
59788;SDS011;47353;51.614;5.530;2024-03-23T14:41:07;7.53;;;2.15;;
59788;SDS011;47353;51.614;5.530;2024-03-23T14:43:33;5.18;;;1.52;;
59788;SDS011;47353;51.614;5.530;2024-03-23T14:46:11;5.78;;;1.70;;
59788;SDS011;47353;51.614;5.530;2024-03-23T14:48:39;8.98;;;1.60;;
59788;SDS011;47353;51.614;5.530;2024-03-23T14:51:06;7.30;;;2.00;;
59788;SDS011;47353;51.614;5.530;2024-03-23T14:53:33;8.95;;;2.67;;
59788;SDS011;47353;51.614;5.530;2024-03-23T14:56:00;8.50;;;1.80;;
59788;SDS011;47353;51.614;5.530;2024-03-23T14:58:27;5.57;;;1.90;;
59788;SDS011;47353;51.614;5.530;2024-03-23T15:00:53;5.82;;;1.50;;
59788;SDS011;47353;51.614;5.530;2024-03-23T15:03:18;10.70;;;3.80;;
59788;SDS011;47353;51.614;5.530;2024-03-23T15:05:57;11.70;;;3.70;;
59788;SDS011;47353;51.614;5.530;2024-03-23T15:08:25;7.20;;;2.30;;
59788;SDS011;47353;51.614;5.530;2024-03-23T15:10:50;9.85;;;2.55;;
59788;SDS011;47353;51.614;5.530;2024-03-23T15:13:16;10.73;;;2.58;;
59788;SDS011;47353;51.614;5.530;2024-03-23T15:15:42;8.20;;;2.45;;
59788;SDS011;47353;51.614;5.530;2024-03-23T15:18:12;6.78;;;2.00;;
59788;SDS011;47353;51.614;5.530;2024-03-23T15:20:40;10.43;;;3.50;;
59788;SDS011;47353;51.614;5.530;2024-03-23T15:23:16;6.80;;;2.17;;
59788;SDS011;47353;51.614;5.530;2024-03-23T15:25:42;4.63;;;1.38;;
59788;SDS011;47353;51.614;5.530;2024-03-23T15:28:07;3.75;;;1.17;;
59788;SDS011;47353;51.614;5.530;2024-03-23T15:30:33;5.78;;;1.45;;
59788;SDS011;47353;51.614;5.530;2024-03-23T15:32:58;7.72;;;2.13;;
59788;SDS011;47353;51.614;5.530;2024-03-23T15:35:24;5.05;;;1.45;;
59788;SDS011;47353;51.614;5.530;2024-03-23T15:37:50;4.22;;;1.33;;
59788;SDS011;47353;51.614;5.530;2024-03-23T15:40:15;4.80;;;1.17;;